Time;durP1;ratioP1;P1;durP2;ratioP2;P2;SDS_P1;SDS_P2;PMS_P1;PMS_P2;Temp;Humidity;BMP_temperature;BMP_pressure;BME280_temperature;BME280_humidity;BME280_pressure;Samples;Min_cycle;Max_cycle;Signal;HPM_P1;HPM_P2
2023/06/07 00:02:11;;;;;;;13.38;12.57;;;;;;;;;;5032363;28;20110;-59
2023/06/07 00:04:39;;;;;;;12.98;12.18;;;;;;;;;;5035315;28;20032;-53
2023/06/07 00:07:05;;;;;;;12.38;11.68;;;;;;;;;;5034794;28;20055;-60
2023/06/07 00:09:31;;;;;;;11.90;11.20;;;;;;;;;;5032029;28;20045;-51
2023/06/07 00:11:56;;;;;;;12.50;11.80;;;;;;;;;;5031315;28;20051;-60
2023/06/07 00:14:22;;;;;;;12.40;11.70;;;;;;;;;;5034653;28;20033;-60
2023/06/07 00:16:50;;;;;;;14.20;13.38;;;;;;;;;;5032087;28;20033;-61
2023/06/07 00:19:20;;;;;;;13.90;13.00;;;;;;;;;;5033568;28;20622;-56
2023/06/07 00:21:49;;;;;;;12.90;12.20;;;;;;;;;;5034802;28;20029;-57
2023/06/07 00:24:18;;;;;;;13.18;12.38;;;;;;;;;;5035045;28;20508;-56
2023/06/07 00:26:44;;;;;;;14.00;13.20;;;;;;;;;;5032838;28;20037;-56
2023/06/07 00:29:10;;;;;;;12.90;12.10;;;;;;;;;;5033101;28;20698;-61
2023/06/07 00:31:36;;;;;;;12.05;11.35;;;;;;;;;;5032049;28;20045;-56
2023/06/07 00:34:01;;;;;;;12.55;11.77;;;;;;;;;;5032780;28;20045;-56
2023/06/07 00:36:28;;;;;;;17.95;16.95;;;;;;;;;;5034042;28;20124;-56
2023/06/07 00:38:54;;;;;;;13.68;12.88;;;;;;;;;;5032754;28;20390;-61
2023/06/07 00:41:20;;;;;;;15.75;14.85;;;;;;;;;;5037122;28;20144;-62
2023/06/07 00:43:47;;;;;;;13.48;12.68;;;;;;;;;;5033704;28;20081;-55
2023/06/07 00:46:14;;;;;;;14.85;14.00;;;;;;;;;;5033692;28;20041;-55
2023/06/07 00:48:40;;;;;;;14.73;13.82;;;;;;;;;;5034372;28;20115;-55
2023/06/07 00:51:05;;;;;;;14.40;13.50;;;;;;;;;;5037188;28;20037;-54
2023/06/07 00:53:31;;;;;;;13.68;12.88;;;;;;;;;;5037373;28;20037;-55
2023/06/07 00:55:57;;;;;;;13.10;12.30;;;;;;;;;;5038837;28;20034;-54
2023/06/07 00:58:23;;;;;;;12.73;11.93;;;;;;;;;;5037647;28;20045;-55
2023/06/07 01:00:49;;;;;;;11.75;11.05;;;;;;;;;;5036199;28;20294;-60
2023/06/07 01:03:14;;;;;;;12.45;11.68;;;;;;;;;;5034931;28;20080;-61
2023/06/07 01:05:41;;;;;;;12.05;11.35;;;;;;;;;;5036336;28;20353;-61
2023/06/07 01:08:07;;;;;;;13.10;12.30;;;;;;;;;;5036812;28;20034;-54
2023/06/07 01:10:33;;;;;;;13.57;12.70;;;;;;;;;;5039231;28;20041;-55
2023/06/07 01:13:02;;;;;;;13.88;13.07;;;;;;;;;;5035124;28;20656;-54
2023/06/07 01:15:28;;;;;;;11.70;11.00;;;;;;;;;;5035777;28;20507;-55
2023/06/07 01:17:53;;;;;;;12.68;11.98;;;;;;;;;;5037041;28;20061;-54
2023/06/07 01:20:24;;;;;;;13.00;12.20;;;;;;;;;;5034793;28;20041;-59
2023/06/07 01:22:51;;;;;;;15.13;14.23;;;;;;;;;;5038232;28;20052;-60
2023/06/07 01:25:16;;;;;;;12.30;11.60;;;;;;;;;;5037301;28;20095;-61
2023/06/07 01:27:45;;;;;;;13.60;12.80;;;;;;;;;;5040277;28;20045;-54
2023/06/07 01:30:12;;;;;;;13.02;12.23;;;;;;;;;;5035771;28;20044;-55
2023/06/07 01:32:40;;;;;;;12.95;12.18;;;;;;;;;;5038336;28;20591;-54
2023/06/07 01:35:08;;;;;;;13.02;12.23;;;;;;;;;;5035954;28;20895;-60
2023/06/07 01:37:35;;;;;;;12.63;11.82;;;;;;;;;;5036354;28;20364;-60
2023/06/07 01:40:03;;;;;;;13.60;12.80;;;;;;;;;;5037116;28;20409;-60
2023/06/07 01:42:29;;;;;;;12.88;12.07;;;;;;;;;;5037144;28;20037;-52
2023/06/07 01:44:56;;;;;;;13.10;12.30;;;;;;;;;;5038217;28;20132;-51
2023/06/07 01:47:21;;;;;;;12.52;11.73;;;;;;;;;;5036461;28;20048;-51
2023/06/07 01:49:46;;;;;;;13.88;12.98;;;;;;;;;;5036450;28;20029;-54
2023/06/07 01:52:12;;;;;;;13.48;12.68;;;;;;;;;;5036004;28;20321;-60
2023/06/07 01:54:38;;;;;;;12.18;11.27;;;;;;;;;;5035419;28;20453;-60
2023/06/07 01:57:25;;;;;;;12.15;11.45;;;;;;;;;;5036427;28;20060;-60
2023/06/07 02:00:01;;;;;;;12.65;11.93;;;;;;;;;;5036020;28;20029;-54
2023/06/07 02:03:11;;;;;;;13.82;13.00;;;;;;;;;;5035120;28;20372;-53
2023/06/07 02:05:40;;;;;;;11.83;11.13;;;;;;;;;;5032208;28;20500;-60
2023/06/07 02:08:17;;;;;;;11.73;11.02;;;;;;;;;;5034242;28;20276;-60
2023/06/07 02:10:44;;;;;;;13.30;12.23;;;;;;;;;;5034959;28;20165;-55
2023/06/07 02:13:10;;;;;;;12.57;11.77;;;;;;;;;;5040310;28;20075;-60
2023/06/07 02:15:36;;;;;;;12.85;12.05;;;;;;;;;;5037553;28;20422;-60
2023/06/07 02:18:02;;;;;;;13.23;12.43;;;;;;;;;;5035813;28;20120;-52
2023/06/07 02:20:29;;;;;;;12.70;11.90;;;;;;;;;;5032595;28;20103;-60
2023/06/07 02:22:56;;;;;;;11.98;11.18;;;;;;;;;;5036551;28;20033;-54
2023/06/07 02:25:24;;;;;;;12.77;11.98;;;;;;;;;;5035603;28;20053;-60
2023/06/07 02:27:50;;;;;;;13.63;12.73;;;;;;;;;;5035617;28;20037;-54
2023/06/07 02:30:16;;;;;;;14.30;13.40;;;;;;;;;;5035475;28;20048;-60
2023/06/07 02:32:45;;;;;;;11.93;11.23;;;;;;;;;;5034933;28;20433;-54
2023/06/07 02:35:11;;;;;;;13.27;12.48;;;;;;;;;;5035547;28;20041;-60
2023/06/07 02:37:37;;;;;;;13.73;12.90;;;;;;;;;;5037064;28;20146;-54
2023/06/07 02:40:08;;;;;;;14.32;13.52;;;;;;;;;;5033301;28;20192;-60
2023/06/07 02:42:35;;;;;;;12.55;11.75;;;;;;;;;;5037342;28;20072;-60
2023/06/07 02:45:02;;;;;;;13.32;12.52;;;;;;;;;;5036521;28;20221;-60
2023/06/07 02:47:28;;;;;;;11.73;11.02;;;;;;;;;;5039523;28;20345;-53
2023/06/07 02:49:53;;;;;;;14.15;13.35;;;;;;;;;;5035664;28;20103;-51
2023/06/07 02:52:19;;;;;;;13.05;12.25;;;;;;;;;;5037677;28;20041;-60
2023/06/07 02:54:45;;;;;;;14.10;13.10;;;;;;;;;;5034654;28;20456;-60
2023/06/07 02:57:10;;;;;;;14.52;13.60;;;;;;;;;;5032398;28;20033;-60
2023/06/07 02:59:38;;;;;;;14.98;13.98;;;;;;;;;;5035833;28;20044;-61
2023/06/07 03:02:04;;;;;;;13.80;12.80;;;;;;;;;;5035593;28;20056;-54
2023/06/07 03:04:30;;;;;;;14.10;13.23;;;;;;;;;;5034121;28;20728;-54
2023/06/07 03:06:55;;;;;;;14.23;13.32;;;;;;;;;;5035935;28;20056;-59
2023/06/07 03:09:21;;;;;;;16.08;15.10;;;;;;;;;;5035950;28;20037;-59
2023/06/07 03:11:46;;;;;;;13.93;13.13;;;;;;;;;;5035050;28;20041;-60
2023/06/07 03:14:11;;;;;;;17.77;16.77;;;;;;;;;;5034022;28;20052;-60
2023/06/07 03:16:37;;;;;;;17.73;16.73;;;;;;;;;;5037456;28;20041;-54
2023/06/07 03:19:02;;;;;;;21.27;20.13;;;;;;;;;;5036794;28;20452;-59
2023/06/07 03:21:28;;;;;;;27.17;25.67;;;;;;;;;;5034820;28;20041;-54
2023/06/07 03:23:53;;;;;;;30.38;28.63;;;;;;;;;;5034524;28;20103;-54
2023/06/07 03:26:19;;;;;;;29.92;28.38;;;;;;;;;;5036344;28;20094;-54
2023/06/07 03:28:44;;;;;;;37.40;35.47;;;;;;;;;;5035659;28;20036;-60
2023/06/07 03:31:10;;;;;;;34.50;32.70;;;;;;;;;;5033492;28;20427;-55
2023/06/07 03:33:35;;;;;;;29.65;27.90;;;;;;;;;;5034897;28;20454;-60
2023/06/07 03:36:01;;;;;;;27.15;25.70;;;;;;;;;;5035636;28;20038;-55
2023/06/07 03:38:26;;;;;;;26.00;24.40;;;;;;;;;;5036074;28;20072;-61
2023/06/07 03:40:51;;;;;;;26.60;25.15;;;;;;;;;;5035710;28;20083;-60
2023/06/07 03:43:17;;;;;;;27.55;26.02;;;;;;;;;;5033804;28;20037;-60
2023/06/07 03:45:42;;;;;;;27.92;26.40;;;;;;;;;;5033382;28;20094;-54
2023/06/07 03:48:08;;;;;;;31.02;29.30;;;;;;;;;;5032843;28;20040;-60
2023/06/07 03:50:33;;;;;;;35.08;33.22;;;;;;;;;;5031699;28;20418;-53
2023/06/07 03:52:58;;;;;;;37.88;35.85;;;;;;;;;;5035006;28;20045;-60
2023/06/07 03:55:24;;;;;;;50.08;47.33;;;;;;;;;;5036669;28;20041;-59
2023/06/07 03:57:49;;;;;;;55.00;52.03;;;;;;;;;;5033456;28;20370;-60
2023/06/07 04:00:17;;;;;;;61.30;58.15;;;;;;;;;;5032194;28;20470;-53
2023/06/07 04:02:42;;;;;;;72.53;68.85;;;;;;;;;;5035424;28;20033;-60
2023/06/07 04:05:08;;;;;;;70.82;67.28;;;;;;;;;;5036288;28;20434;-60
2023/06/07 04:07:33;;;;;;;65.97;62.65;;;;;;;;;;5029496;28;20092;-60
2023/06/07 04:09:58;;;;;;;82.88;78.72;;;;;;;;;;5039319;28;20465;-60
2023/06/07 04:12:24;;;;;;;74.05;70.30;;;;;;;;;;5032893;28;20037;-53
2023/06/07 04:14:49;;;;;;;78.90;74.97;;;;;;;;;;5035034;28;20091;-60
2023/06/07 04:17:15;;;;;;;81.93;77.78;;;;;;;;;;5035646;28;20604;-52
2023/06/07 04:19:40;;;;;;;80.75;76.70;;;;;;;;;;5030489;28;20029;-60
2023/06/07 04:22:06;;;;;;;67.40;64.00;;;;;;;;;;5035578;28;20029;-60
2023/06/07 04:24:32;;;;;;;66.82;63.25;;;;;;;;;;5033489;28;20112;-59
2023/06/07 04:26:58;;;;;;;47.90;45.10;;;;;;;;;;5037338;28;20029;-60
2023/06/07 04:29:25;;;;;;;63.20;60.00;;;;;;;;;;5037624;28;20443;-54
2023/06/07 04:31:52;;;;;;;45.65;43.33;;;;;;;;;;5041284;28;20148;-60
2023/06/07 04:34:21;;;;;;;30.15;28.52;;;;;;;;;;5040848;28;20370;-60
2023/06/07 04:36:49;;;;;;;21.80;20.60;;;;;;;;;;5038471;28;20551;-60
2023/06/07 04:39:15;;;;;;;25.63;24.23;;;;;;;;;;5035406;28;20378;-55
2023/06/07 04:41:40;;;;;;;18.20;17.20;;;;;;;;;;5035952;28;20080;-54
2023/06/07 04:44:06;;;;;;;19.98;18.83;;;;;;;;;;5037242;28;20037;-53
2023/06/07 04:46:32;;;;;;;34.28;32.30;;;;;;;;;;5038386;28;20551;-55
2023/06/07 04:48:58;;;;;;;42.42;40.22;;;;;;;;;;5038852;28;20117;-60
2023/06/07 04:51:26;;;;;;;21.17;19.95;;;;;;;;;;5038314;28;20059;-60
2023/06/07 04:53:58;;;;;;;19.63;18.50;;;;;;;;;;5037518;28;20037;-54
2023/06/07 04:56:27;;;;;;;13.60;12.80;;;;;;;;;;5037955;28;20074;-53
2023/06/07 04:58:53;;;;;;;12.50;11.80;;;;;;;;;;5034139;28;20065;-61
2023/06/07 05:01:18;;;;;;;12.68;11.88;;;;;;;;;;5041428;28;20048;-60
2023/06/07 05:03:44;;;;;;;12.80;12.00;;;;;;;;;;5040254;28;20021;-61
2023/06/07 05:06:09;;;;;;;11.55;10.85;;;;;;;;;;5038804;28;20031;-53
2023/06/07 05:08:35;;;;;;;13.45;12.55;;;;;;;;;;5038833;28;20033;-54
2023/06/07 05:11:01;;;;;;;14.43;13.63;;;;;;;;;;5037110;28;20039;-53
2023/06/07 05:13:26;;;;;;;12.15;11.35;;;;;;;;;;5038162;28;20060;-55
2023/06/07 05:15:52;;;;;;;12.60;11.90;;;;;;;;;;5034818;28;20036;-54
2023/06/07 05:18:19;;;;;;;11.98;11.27;;;;;;;;;;5039288;28;20408;-60
2023/06/07 05:20:46;;;;;;;13.25;12.38;;;;;;;;;;5036633;28;20403;-61
2023/06/07 05:23:16;;;;;;;14.02;13.15;;;;;;;;;;5037762;28;20040;-61
2023/06/07 05:25:42;;;;;;;13.48;12.68;;;;;;;;;;5036849;28;20052;-61
2023/06/07 05:28:07;;;;;;;13.93;13.13;;;;;;;;;;5035832;28;20037;-60
2023/06/07 05:30:32;;;;;;;14.55;13.70;;;;;;;;;;5036878;28;20037;-61
2023/06/07 05:32:58;;;;;;;14.98;14.13;;;;;;;;;;5035959;28;20036;-61
2023/06/07 05:35:23;;;;;;;14.52;13.68;;;;;;;;;;5036661;28;20463;-61
2023/06/07 05:37:49;;;;;;;16.83;15.68;;;;;;;;;;5035326;28;20044;-60
2023/06/07 05:40:18;;;;;;;16.50;15.30;;;;;;;;;;5038242;28;20040;-61
2023/06/07 05:42:44;;;;;;;15.13;14.27;;;;;;;;;;5036599;28;20033;-61
2023/06/07 05:45:10;;;;;;;16.23;15.32;;;;;;;;;;5033624;28;20037;-61
2023/06/07 05:47:35;;;;;;;16.75;15.82;;;;;;;;;;5037195;28;20348;-60
2023/06/07 05:50:01;;;;;;;17.75;16.75;;;;;;;;;;5033744;28;20059;-54
2023/06/07 05:52:26;;;;;;;18.02;16.95;;;;;;;;;;5033744;28;20036;-54
2023/06/07 05:54:54;;;;;;;20.17;19.08;;;;;;;;;;5035721;28;20120;-50
2023/06/07 05:57:20;;;;;;;21.52;20.02;;;;;;;;;;5037351;28;20049;-52
2023/06/07 05:59:45;;;;;;;24.60;23.00;;;;;;;;;;5036409;28;20032;-54
2023/06/07 06:02:11;;;;;;;23.70;22.33;;;;;;;;;;5036995;28;20043;-54
2023/06/07 06:04:36;;;;;;;32.42;30.63;;;;;;;;;;5037641;28;20475;-55
2023/06/07 06:07:02;;;;;;;36.90;35.00;;;;;;;;;;5037840;28;20094;-59
2023/06/07 06:09:28;;;;;;;44.67;42.40;;;;;;;;;;5038232;28;20119;-53
2023/06/07 06:11:55;;;;;;;54.40;51.55;;;;;;;;;;5035785;28;20394;-53
2023/06/07 06:14:21;;;;;;;54.28;51.55;;;;;;;;;;5035276;28;20033;-51
2023/06/07 06:16:46;;;;;;;48.67;46.20;;;;;;;;;;5033844;28;20044;-54
2023/06/07 06:19:12;;;;;;;40.58;38.47;;;;;;;;;;5038026;28;20039;-54
2023/06/07 06:21:37;;;;;;;40.80;38.67;;;;;;;;;;5036154;28;20036;-60
2023/06/07 06:24:03;;;;;;;38.15;36.20;;;;;;;;;;5038402;28;20059;-60
2023/06/07 06:26:29;;;;;;;43.03;40.78;;;;;;;;;;5036090;28;20151;-52
2023/06/07 06:28:54;;;;;;;44.60;42.30;;;;;;;;;;5032931;28;20371;-53
2023/06/07 06:31:20;;;;;;;50.30;47.75;;;;;;;;;;5037413;28;20033;-54
2023/06/07 06:33:45;;;;;;;59.17;56.17;;;;;;;;;;5036597;28;20033;-60
2023/06/07 06:36:11;;;;;;;66.00;62.65;;;;;;;;;;5036637;28;21491;-56
2023/06/07 06:38:36;;;;;;;64.53;60.97;;;;;;;;;;5035630;28;20552;-54
2023/06/07 06:41:02;;;;;;;80.70;76.65;;;;;;;;;;5035351;28;20273;-54
2023/06/07 06:43:27;;;;;;;87.30;82.95;;;;;;;;;;5036784;28;20049;-60
2023/06/07 06:45:52;;;;;;;105.30;100.10;;;;;;;;;;5036596;28;20344;-54
2023/06/07 06:48:18;;;;;;;92.70;87.95;;;;;;;;;;5037772;28;20208;-61
2023/06/07 06:50:46;;;;;;;148.75;141.45;;;;;;;;;;5034754;28;20127;-61
2023/06/07 06:53:12;;;;;;;107.85;102.45;;;;;;;;;;5034913;28;20088;-60
2023/06/07 06:55:37;;;;;;;50.72;48.10;;;;;;;;;;5034414;28;20348;-60
2023/06/07 06:58:02;;;;;;;53.13;50.35;;;;;;;;;;5036078;28;20115;-61
2023/06/07 07:00:29;;;;;;;56.65;53.80;;;;;;;;;;5034554;28;20111;-61
2023/06/07 07:02:54;;;;;;;98.05;93.20;;;;;;;;;;5033120;28;20029;-60
2023/06/07 07:05:21;;;;;;;89.78;85.28;;;;;;;;;;5034415;28;20044;-61
2023/06/07 07:07:46;;;;;;;56.30;53.47;;;;;;;;;;5043961;28;20039;-60
2023/06/07 07:10:12;;;;;;;52.67;50.05;;;;;;;;;;5032889;28;20499;-61
2023/06/07 07:12:40;;;;;;;59.35;56.38;;;;;;;;;;5033512;28;20061;-51
2023/06/07 07:15:06;;;;;;;57.15;54.28;;;;;;;;;;5036795;28;20067;-61
2023/06/07 07:17:31;;;;;;;53.47;50.78;;;;;;;;;;5034658;28;20435;-61
2023/06/07 07:19:56;;;;;;;76.28;72.53;;;;;;;;;;5033742;28;20061;-53
2023/06/07 07:22:22;;;;;;;62.97;59.78;;;;;;;;;;5034472;28;20029;-52
2023/06/07 07:24:47;;;;;;;51.05;48.47;;;;;;;;;;5034847;28;20052;-60
2023/06/07 07:27:13;;;;;;;90.57;86.00;;;;;;;;;;5035754;28;20095;-55
2023/06/07 07:29:38;;;;;;;58.05;55.13;;;;;;;;;;5034674;28;20029;-54
2023/06/07 07:32:04;;;;;;;53.35;50.63;;;;;;;;;;5034491;28;20076;-61
2023/06/07 07:34:30;;;;;;;68.93;65.53;;;;;;;;;;5034544;28;20646;-61
2023/06/07 07:36:57;;;;;;;90.18;85.72;;;;;;;;;;5033336;28;20106;-60
2023/06/07 07:39:25;;;;;;;92.57;87.88;;;;;;;;;;5032435;28;20029;-55
2023/06/07 07:41:51;;;;;;;92.85;88.30;;;;;;;;;;5038629;28;20040;-55
2023/06/07 07:44:16;;;;;;;59.00;56.03;;;;;;;;;;5035585;28;20025;-54
2023/06/07 07:46:41;;;;;;;146.65;138.23;;;;;;;;;;5034440;28;20025;-55
2023/06/07 07:49:07;;;;;;;154.13;146.52;;;;;;;;;;5034596;28;20045;-52
2023/06/07 07:51:32;;;;;;;157.13;149.48;;;;;;;;;;5033813;28;20065;-58
2023/06/07 07:53:57;;;;;;;133.88;127.28;;;;;;;;;;5037500;28;20033;-61
2023/06/07 07:56:23;;;;;;;66.78;63.42;;;;;;;;;;5034676;28;20620;-61
2023/06/07 07:58:49;;;;;;;80.05;76.10;;;;;;;;;;5033221;28;20034;-59
2023/06/07 08:01:23;;;;;;;133.15;126.57;;;;;;;;;;5034025;28;20033;-61
2023/06/07 08:03:49;;;;;;;84.70;80.47;;;;;;;;;;5042389;28;20119;-54
2023/06/07 08:06:15;;;;;;;162.02;154.05;;;;;;;;;;5034745;28;20178;-60
2023/06/07 08:08:40;;;;;;;165.18;157.07;;;;;;;;;;5034128;28;20032;-60
2023/06/07 08:11:06;;;;;;;144.30;137.25;;;;;;;;;;5036014;28;20036;-60
2023/06/07 08:13:31;;;;;;;93.63;89.00;;;;;;;;;;5038399;28;20044;-60
2023/06/07 08:15:56;;;;;;;108.03;102.72;;;;;;;;;;5033864;28;20033;-61
2023/06/07 08:18:22;;;;;;;135.48;128.80;;;;;;;;;;5034726;28;20060;-61
2023/06/07 08:20:47;;;;;;;166.48;158.35;;;;;;;;;;5034364;28;20506;-60
2023/06/07 08:23:13;;;;;;;134.32;127.75;;;;;;;;;;5030108;28;20033;-53
2023/06/07 08:25:38;;;;;;;171.43;162.85;;;;;;;;;;5032549;28;20037;-53
2023/06/07 08:28:04;;;;;;;172.48;164.05;;;;;;;;;;5032842;28;20029;-61
2023/06/07 08:30:30;;;;;;;161.35;153.32;;;;;;;;;;5036410;28;20068;-60
2023/06/07 08:32:55;;;;;;;161.52;153.60;;;;;;;;;;5033927;28;20053;-61
2023/06/07 08:35:21;;;;;;;171.35;162.95;;;;;;;;;;5034663;28;20033;-61
2023/06/07 08:37:46;;;;;;;160.85;152.88;;;;;;;;;;5033380;28;20030;-54
2023/06/07 08:40:12;;;;;;;155.05;147.45;;;;;;;;;;5034799;28;20854;-53
2023/06/07 08:42:38;;;;;;;109.13;103.75;;;;;;;;;;5034994;28;20029;-54
2023/06/07 08:45:04;;;;;;;171.68;163.30;;;;;;;;;;5036017;28;20029;-52
2023/06/07 08:47:30;;;;;;;196.15;186.60;;;;;;;;;;5035439;28;20529;-61
2023/06/07 08:49:57;;;;;;;151.23;143.80;;;;;;;;;;5033584;28;20060;-61
2023/06/07 08:52:23;;;;;;;186.98;177.88;;;;;;;;;;5032619;28;20095;-61
2023/06/07 08:54:49;;;;;;;145.43;138.07;;;;;;;;;;5033626;28;20029;-55
2023/06/07 08:57:18;;;;;;;203.07;193.05;;;;;;;;;;5033703;28;20045;-61
2023/06/07 08:59:45;;;;;;;195.73;186.20;;;;;;;;;;5029797;28;20025;-61
2023/06/07 09:02:15;;;;;;;182.77;173.82;;;;;;;;;;5041055;28;20367;-61
2023/06/07 09:04:41;;;;;;;202.40;192.60;;;;;;;;;;5033449;28;20068;-53
2023/06/07 09:07:07;;;;;;;224.93;214.02;;;;;;;;;;5035410;28;20267;-51
2023/06/07 09:09:35;;;;;;;213.52;203.10;;;;;;;;;;5028516;28;20044;-61
2023/06/07 09:12:00;;;;;;;210.13;199.88;;;;;;;;;;5034477;28;20033;-62
2023/06/07 09:14:28;;;;;;;216.80;206.18;;;;;;;;;;5046506;28;20052;-54
2023/06/07 09:16:58;;;;;;;197.95;188.32;;;;;;;;;;5044921;28;20132;-61
2023/06/07 09:19:34;;;;;;;;;;;;;;;;;;5034014;28;20065;-54
2023/06/07 09:22:04;;;;;;;171.70;163.27;;;;;;;;;;5037145;28;20417;-61
2023/06/07 09:24:31;;;;;;;208.30;198.13;;;;;;;;;;5037028;28;20056;-54
2023/06/07 09:26:57;;;;;;;204.90;194.95;;;;;;;;;;5036926;28;20035;-53
2023/06/07 09:29:23;;;;;;;206.65;196.57;;;;;;;;;;5036620;28;20103;-61
2023/06/07 09:31:48;;;;;;;205.02;195.10;;;;;;;;;;5039101;28;20037;-61
2023/06/07 09:34:20;;;;;;;229.40;218.32;;;;;;;;;;5037094;28;20045;-61
2023/06/07 09:36:51;;;;;;;213.93;203.55;;;;;;;;;;5040153;28;20037;-61
2023/06/07 09:39:27;;;;;;;203.27;193.38;;;;;;;;;;5037406;28;20458;-61
2023/06/07 09:41:56;;;;;;;214.98;204.60;;;;;;;;;;5036766;28;20133;-54
2023/06/07 09:44:30;;;;;;;209.68;199.55;;;;;;;;;;5038036;28;20091;-61
2023/06/07 09:46:56;;;;;;;223.63;212.82;;;;;;;;;;5034922;28;20060;-60
2023/06/07 09:49:31;;;;;;;212.82;202.55;;;;;;;;;;5036264;28;20441;-51
2023/06/07 09:51:57;;;;;;;214.38;203.98;;;;;;;;;;5037008;28;20051;-54
2023/06/07 09:54:40;;;;;;;221.05;210.23;;;;;;;;;;5035604;28;20025;-54
2023/06/07 09:57:09;;;;;;;211.63;201.43;;;;;;;;;;5038026;28;20546;-60
2023/06/07 09:59:37;;;;;;;205.40;195.45;;;;;;;;;;5037786;28;20418;-61
2023/06/07 10:02:21;;;;;;;213.88;203.52;;;;;;;;;;5034835;28;20181;-53
2023/06/07 10:04:48;;;;;;;191.90;182.60;;;;;;;;;;5036121;28;20059;-61
2023/06/07 10:07:14;;;;;;;207.30;197.27;;;;;;;;;;5037405;28;20033;-49
2023/06/07 10:09:41;;;;;;;222.65;211.75;;;;;;;;;;5036490;28;20421;-52
2023/06/07 10:12:08;;;;;;;212.40;202.15;;;;;;;;;;5036190;28;20134;-52
2023/06/07 10:14:35;;;;;;;219.68;209.07;;;;;;;;;;5037007;28;20037;-52
2023/06/07 10:17:05;;;;;;;215.68;205.18;;;;;;;;;;5035079;28;20040;-51
2023/06/07 10:19:40;;;;;;;207.27;197.07;;;;;;;;;;5020370;28;20462;-62
2023/06/07 10:22:11;;;;;;;220.00;209.40;;;;;;;;;;5037967;28;20033;-62
2023/06/07 10:24:49;;;;;;;212.93;202.63;;;;;;;;;;5034747;28;20111;-62
2023/06/07 10:27:17;;;;;;;227.20;216.10;;;;;;;;;;5037296;28;20371;-53
2023/06/07 10:29:46;;;;;;;203.18;193.30;;;;;;;;;;5021832;28;20592;-62
2023/06/07 10:32:24;;;;;;;217.10;206.02;;;;;;;;;;5037152;28;20407;-61
2023/06/07 10:34:52;;;;;;;229.65;218.57;;;;;;;;;;5033607;28;20068;-52
2023/06/07 10:37:19;;;;;;;220.95;210.23;;;;;;;;;;5031846;28;20032;-53
2023/06/07 10:39:46;;;;;;;239.30;227.65;;;;;;;;;;5036783;28;20029;-62
2023/06/07 10:42:12;;;;;;;240.48;228.68;;;;;;;;;;5035414;28;20028;-61
2023/06/07 10:44:37;;;;;;;158.82;151.02;;;;;;;;;;5033732;28;20044;-62
2023/06/07 10:47:29;;;;;;;204.65;194.50;;;;;;;;;;5036385;28;20033;-61
2023/06/07 10:49:55;;;;;;;141.00;134.07;;;;;;;;;;5035155;28;20387;-62
2023/06/07 10:52:22;;;;;;;207.68;197.45;;;;;;;;;;5034962;28;20029;-62
2023/06/07 10:54:48;;;;;;;125.47;119.22;;;;;;;;;;5034603;28;20079;-62
2023/06/07 10:57:14;;;;;;;143.68;136.50;;;;;;;;;;5034842;28;20099;-62
2023/06/07 10:59:40;;;;;;;151.35;143.90;;;;;;;;;;5032929;28;20025;-53
2023/06/07 11:02:26;;;;;;;121.53;115.53;;;;;;;;;;5034415;28;20375;-54
2023/06/07 11:04:59;;;;;;;121.38;115.38;;;;;;;;;;5035083;28;20030;-62
2023/06/07 11:07:32;;;;;;;118.07;112.22;;;;;;;;;;5035196;28;20087;-62
2023/06/07 11:10:13;;;;;;;114.05;108.38;;;;;;;;;;5032409;28;20045;-62
2023/06/07 11:12:40;;;;;;;117.05;111.20;;;;;;;;;;5033389;28;20415;-63
2023/06/07 11:15:21;;;;;;;117.80;111.97;;;;;;;;;;5034634;28;20538;-53
2023/06/07 11:17:53;;;;;;;160.35;152.02;;;;;;;;;;5033459;28;20079;-62
2023/06/07 11:20:37;;;;;;;117.53;111.40;;;;;;;;;;5034504;28;20383;-62
2023/06/07 11:23:22;;;;;;;140.75;133.82;;;;;;;;;;5037832;28;20033;-54
2023/06/07 11:25:50;;;;;;;128.45;122.15;;;;;;;;;;5034221;28;20067;-54
2023/06/07 11:28:16;;;;;;;163.55;155.55;;;;;;;;;;5031309;28;20429;-62
2023/06/07 11:30:42;;;;;;;177.88;169.13;;;;;;;;;;5030086;28;20435;-55
2023/06/07 11:33:13;;;;;;;163.38;155.30;;;;;;;;;;5031875;28;20068;-55
2023/06/07 11:35:40;;;;;;;190.30;181.00;;;;;;;;;;5013466;28;20251;-54
2023/06/07 11:38:05;;;;;;;182.30;173.27;;;;;;;;;;5033290;28;20029;-63
2023/06/07 11:40:31;;;;;;;198.52;188.88;;;;;;;;;;5035781;28;20024;-55
2023/06/07 11:42:56;;;;;;;185.43;176.35;;;;;;;;;;5033785;28;20014;-55
2023/06/07 11:45:21;;;;;;;190.10;180.70;;;;;;;;;;5033405;28;20037;-53
2023/06/07 11:47:48;;;;;;;192.90;183.40;;;;;;;;;;5038755;28;20033;-54
2023/06/07 11:50:14;;;;;;;156.10;148.45;;;;;;;;;;5033339;28;20195;-52
2023/06/07 11:52:40;;;;;;;150.77;143.35;;;;;;;;;;5034240;28;20430;-62
2023/06/07 11:55:08;;;;;;;206.75;196.60;;;;;;;;;;5035954;28;20051;-54
2023/06/07 11:57:37;;;;;;;141.95;134.98;;;;;;;;;;5033794;28;20040;-62
2023/06/07 12:00:08;;;;;;;136.82;130.13;;;;;;;;;;5035853;28;20033;-61
2023/06/07 12:02:39;;;;;;;137.50;130.68;;;;;;;;;;5034914;28;20021;-54
2023/06/07 12:05:11;;;;;;;153.25;145.65;;;;;;;;;;5034213;28;20025;-62
2023/06/07 12:07:39;;;;;;;138.07;131.30;;;;;;;;;;5033392;28;20363;-62
2023/06/07 12:10:08;;;;;;;136.13;129.18;;;;;;;;;;5032780;28;20043;-62
2023/06/07 12:12:37;;;;;;;156.90;149.23;;;;;;;;;;5035938;28;20064;-55
2023/06/07 12:15:04;;;;;;;155.07;147.50;;;;;;;;;;5035536;28;20041;-62
2023/06/07 12:17:36;;;;;;;153.32;145.60;;;;;;;;;;5036178;28;20029;-62
2023/06/07 12:20:21;;;;;;;135.23;128.52;;;;;;;;;;5041493;28;20106;-62
2023/06/07 12:22:46;;;;;;;134.18;127.53;;;;;;;;;;5037116;28;20025;-61
2023/06/07 12:25:16;;;;;;;134.88;128.18;;;;;;;;;;5034828;28;20419;-62
2023/06/07 12:27:48;;;;;;;131.77;125.20;;;;;;;;;;5033751;28;20033;-62
2023/06/07 12:30:13;;;;;;;135.02;128.38;;;;;;;;;;5033882;28;20042;-62
2023/06/07 12:32:39;;;;;;;141.75;134.75;;;;;;;;;;5036857;28;20029;-55
2023/06/07 12:35:05;;;;;;;162.73;154.75;;;;;;;;;;5033850;28;20044;-54
2023/06/07 12:37:35;;;;;;;148.25;141.00;;;;;;;;;;5034516;28;20183;-55
2023/06/07 12:40:02;;;;;;;161.00;153.10;;;;;;;;;;5034130;28;20111;-53
2023/06/07 12:42:28;;;;;;;140.98;134.05;;;;;;;;;;5032640;28;20094;-53
2023/06/07 12:44:54;;;;;;;144.70;137.55;;;;;;;;;;5033677;28;20107;-54
2023/06/07 12:47:20;;;;;;;161.18;153.27;;;;;;;;;;5036474;28;20047;-53
2023/06/07 12:49:46;;;;;;;135.02;128.35;;;;;;;;;;5036168;28;20033;-55
2023/06/07 12:52:11;;;;;;;164.75;156.68;;;;;;;;;;5039035;28;20041;-53
2023/06/07 12:54:37;;;;;;;193.23;183.85;;;;;;;;;;5036735;28;20037;-49
2023/06/07 12:57:03;;;;;;;199.85;190.15;;;;;;;;;;5039473;28;20060;-53
2023/06/07 12:59:28;;;;;;;165.43;157.38;;;;;;;;;;5037634;28;20033;-51
2023/06/07 13:01:54;;;;;;;130.43;124.03;;;;;;;;;;5036503;28;20028;-61
2023/06/07 13:04:19;;;;;;;76.50;72.68;;;;;;;;;;5037262;28;20154;-54
2023/06/07 13:06:44;;;;;;;30.92;29.15;;;;;;;;;;5041063;28;20040;-51
2023/06/07 13:09:11;;;;;;;37.25;34.97;;;;;;;;;;5036240;28;20163;-53
2023/06/07 13:11:39;;;;;;;65.93;62.65;;;;;;;;;;5034908;28;20806;-53
2023/06/07 13:14:05;;;;;;;94.10;89.38;;;;;;;;;;5036678;28;20028;-53
2023/06/07 13:16:31;;;;;;;67.80;64.35;;;;;;;;;;5036136;28;20062;-53
2023/06/07 13:18:57;;;;;;;110.50;105.07;;;;;;;;;;5035651;28;20038;-61
2023/06/07 13:21:23;;;;;;;73.60;69.93;;;;;;;;;;5038791;28;20060;-62
2023/06/07 13:23:48;;;;;;;50.10;47.55;;;;;;;;;;5036024;28;20488;-61
2023/06/07 13:26:14;;;;;;;85.78;81.50;;;;;;;;;;5037597;28;20033;-51
2023/06/07 13:28:43;;;;;;;64.20;60.95;;;;;;;;;;5037552;28;20371;-54
2023/06/07 13:31:10;;;;;;;98.28;93.40;;;;;;;;;;5034478;28;20041;-62
2023/06/07 13:33:35;;;;;;;67.38;64.00;;;;;;;;;;5038932;28;20032;-61
2023/06/07 13:36:00;;;;;;;119.80;113.88;;;;;;;;;;5038067;28;20051;-52
2023/06/07 13:38:26;;;;;;;54.85;52.08;;;;;;;;;;5037760;28;20055;-63
2023/06/07 13:40:51;;;;;;;32.67;30.98;;;;;;;;;;5040348;28;20062;-62
2023/06/07 13:43:16;;;;;;;41.05;38.90;;;;;;;;;;5038507;28;20052;-62
2023/06/07 13:45:42;;;;;;;158.23;150.43;;;;;;;;;;5035311;28;20033;-54
2023/06/07 13:48:10;;;;;;;56.80;53.95;;;;;;;;;;5032588;28;20492;-54
2023/06/07 13:50:36;;;;;;;54.83;52.00;;;;;;;;;;5037482;28;20036;-54
2023/06/07 13:53:01;;;;;;;59.75;56.75;;;;;;;;;;5035289;28;20044;-62
2023/06/07 13:55:27;;;;;;;41.03;38.90;;;;;;;;;;5044712;28;20444;-62
2023/06/07 13:57:55;;;;;;;44.33;42.10;;;;;;;;;;5032914;28;20029;-62
2023/06/07 14:00:22;;;;;;;50.75;48.17;;;;;;;;;;5036770;28;20028;-55
2023/06/07 14:02:47;;;;;;;54.85;52.05;;;;;;;;;;5037209;28;20065;-61
2023/06/07 14:05:13;;;;;;;146.85;139.63;;;;;;;;;;5036333;28;20041;-54
2023/06/07 14:07:40;;;;;;;71.00;67.38;;;;;;;;;;5031239;28;20452;-62
2023/06/07 14:10:07;;;;;;;99.30;94.38;;;;;;;;;;5035654;28;20033;-61